createdAt,value
2023-01-02T00:02:31.238Z,13.20
2023-01-02T00:07:34.126Z,13.27
2023-01-02T00:12:37.060Z,13.80
2023-01-02T00:17:39.901Z,13.73
2023-01-02T00:22:42.657Z,13.30
2023-01-02T00:27:45.312Z,13.57
2023-01-02T00:32:48.028Z,12.60
2023-01-02T00:38:02.735Z,12.40
2023-01-02T00:43:05.635Z,13.57
2023-01-02T00:48:08.255Z,11.75
2023-01-02T00:53:12.179Z,13.20
2023-01-02T00:58:14.746Z,12.75
2023-01-02T01:03:17.520Z,13.13
2023-01-02T01:08:20.194Z,14.63
2023-01-02T01:13:22.790Z,14.20
2023-01-02T01:18:25.445Z,11.83
2023-01-02T01:23:28.015Z,12.40
2023-01-02T01:28:30.580Z,12.77
2023-01-02T01:33:33.917Z,11.83
2023-01-02T01:38:36.696Z,10.73
2023-01-02T01:43:47.688Z,10.73
2023-01-02T01:48:56.126Z,11.85
2023-01-02T01:54:10.648Z,12.75
2023-01-02T01:59:14.145Z,11.50
2023-01-02T02:04:18.420Z,11.38
2023-01-02T02:09:31.416Z,12.40
2023-01-02T02:14:34.770Z,13.05
2023-01-02T02:19:58.534Z,13.52
2023-01-02T02:25:18.015Z,10.67
2023-01-02T02:30:25.385Z,11.15
2023-01-02T02:35:53.676Z,11.10
2023-01-02T02:41:14.367Z,12.13
2023-01-02T02:46:40.709Z,12.27
2023-01-02T02:51:48.225Z,11.83
2023-01-02T02:56:53.211Z,13.88
2023-01-02T03:01:56.001Z,13.23
2023-01-02T03:07:21.956Z,13.25
2023-01-02T03:12:44.032Z,12.43
2023-01-02T03:18:12.856Z,12.03
2023-01-02T03:23:23.973Z,12.10
2023-01-02T03:28:27.732Z,11.23
2023-01-02T03:33:34.941Z,11.63
2023-01-02T03:38:42.253Z,11.82
2023-01-02T03:43:54.778Z,12.03
2023-01-02T03:49:16.905Z,9.15
2023-01-02T03:54:20.418Z,10.80
2023-01-02T03:59:52.801Z,11.13
2023-01-02T04:04:58.696Z,11.68
2023-01-02T04:10:02.685Z,11.23
2023-01-02T04:15:17.618Z,10.57
2023-01-02T04:20:28.328Z,10.60
2023-01-02T04:25:41.408Z,8.80
2023-01-02T04:30:50.213Z,8.07
2023-01-02T04:35:54.907Z,10.00
2023-01-02T04:40:58.120Z,9.75
2023-01-02T04:46:00.968Z,10.20
2023-01-02T04:51:03.784Z,11.00
2023-01-02T04:56:07.655Z,10.55
2023-01-02T05:01:16.101Z,10.57
2023-01-02T05:06:19.028Z,11.93
2023-01-02T05:11:22.107Z,9.97
2023-01-02T05:16:24.898Z,11.95
2023-01-02T05:21:46.167Z,12.13
2023-01-02T05:26:49.321Z,11.87
2023-01-02T05:31:51.985Z,11.95
2023-01-02T05:36:54.908Z,11.53
2023-01-02T05:41:57.579Z,10.07
2023-01-02T05:47:00.264Z,10.55
2023-01-02T05:52:02.950Z,11.63
2023-01-02T05:57:06.213Z,12.00
2023-01-02T06:02:08.942Z,11.50
2023-01-02T06:07:11.848Z,10.88
2023-01-02T06:12:14.572Z,12.25
2023-01-02T06:17:17.236Z,10.63
2023-01-02T06:22:20.033Z,11.75
2023-01-02T06:27:22.792Z,12.50
2023-01-02T06:32:25.574Z,12.77
2023-01-02T06:37:28.361Z,12.18
2023-01-02T06:42:33.121Z,13.23
2023-01-02T06:47:36.009Z,11.05
2023-01-02T06:52:38.748Z,11.67
2023-01-02T06:57:41.658Z,13.05
2023-01-02T07:02:44.960Z,10.80
2023-01-02T07:07:47.892Z,12.10
2023-01-02T07:12:50.829Z,12.18
2023-01-02T07:17:53.711Z,11.83
2023-01-02T07:22:56.521Z,9.70
2023-01-02T07:27:59.996Z,12.13
2023-01-02T07:33:02.677Z,13.33
2023-01-02T07:38:05.430Z,13.90
2023-01-02T07:43:08.202Z,14.20
2023-01-02T07:48:10.927Z,16.92
2023-01-02T07:53:13.966Z,15.68
2023-01-02T07:58:16.750Z,16.03
2023-01-02T08:03:19.526Z,16.83
2023-01-02T08:08:22.274Z,17.87
2023-01-02T08:13:25.759Z,17.42
2023-01-02T08:18:28.646Z,16.70
2023-01-02T08:23:32.486Z,16.93
2023-01-02T08:28:36.081Z,16.42
2023-01-02T08:33:39.554Z,17.67
2023-01-02T08:38:43.349Z,17.40
2023-01-02T08:43:46.116Z,15.75
2023-01-02T08:48:48.881Z,17.07
2023-01-02T08:53:51.805Z,23.88
2023-01-02T08:59:01.001Z,29.50
2023-01-02T09:04:11.600Z,31.02
2023-01-02T09:09:16.894Z,31.15
2023-01-02T09:14:22.007Z,31.70
2023-01-02T09:19:26.479Z,35.40
2023-01-02T09:24:29.466Z,31.80
2023-01-02T09:29:32.428Z,38.58
2023-01-02T09:34:35.263Z,42.45
2023-01-02T09:39:37.971Z,39.63
2023-01-02T09:44:49.021Z,37.30
2023-01-02T09:50:06.376Z,35.27
2023-01-02T09:55:18.253Z,36.33
2023-01-02T10:00:27.143Z,31.92
2023-01-02T10:05:54.345Z,29.47
2023-01-02T10:11:21.885Z,26.88
2023-01-02T10:16:41.125Z,25.03
2023-01-02T10:21:47.849Z,25.10
2023-01-02T10:26:54.500Z,25.85
2023-01-02T10:32:02.747Z,24.13
2023-01-02T10:37:15.121Z,22.17
2023-01-02T10:42:19.069Z,20.57
2023-01-02T10:47:38.411Z,21.17
2023-01-02T10:52:47.173Z,20.67
2023-01-02T10:57:51.639Z,19.30
2023-01-02T11:03:00.452Z,19.90
2023-01-02T11:08:13.538Z,20.83
2023-01-02T11:13:19.750Z,20.38
2023-01-02T11:18:35.877Z,19.05
2023-01-02T11:23:43.140Z,18.00
2023-01-02T11:28:46.276Z,18.35
2023-01-02T11:33:49.219Z,18.23
2023-01-02T11:38:54.317Z,18.95
2023-01-02T11:43:59.807Z,18.98
2023-01-02T11:49:12.047Z,18.60
2023-01-02T11:54:23.420Z,18.50
2023-01-02T11:59:37.321Z,16.77
2023-01-02T12:04:40.153Z,17.63
2023-01-02T12:10:06.924Z,18.33
2023-01-02T12:15:09.688Z,17.80
2023-01-02T12:20:28.868Z,17.55
2023-01-02T12:25:54.059Z,18.10
2023-01-02T12:31:34.503Z,17.27
2023-01-02T12:37:02.370Z,15.57
2023-01-02T12:42:28.486Z,17.37
2023-01-02T12:47:49.060Z,15.90
2023-01-02T12:53:10.185Z,15.37
2023-01-02T12:58:23.548Z,19.13
2023-01-02T13:03:41.464Z,19.88
2023-01-02T13:09:22.432Z,19.10
2023-01-02T13:14:34.703Z,21.30
2023-01-02T13:19:46.577Z,18.27
2023-01-02T13:24:50.607Z,20.67
2023-01-02T13:29:53.948Z,20.60
2023-01-02T13:35:02.488Z,22.00
2023-01-02T13:40:06.029Z,22.02
2023-01-02T13:45:31.562Z,21.27
2023-01-02T13:50:37.420Z,20.42
2023-01-02T13:55:40.922Z,20.17
2023-01-02T14:00:55.108Z,18.73
2023-01-02T14:06:01.545Z,20.08
2023-01-02T14:11:18.651Z,18.87
2023-01-02T14:16:33.497Z,19.10
2023-01-02T14:21:40.220Z,17.33
2023-01-02T14:26:43.131Z,18.07
2023-01-02T14:31:47.939Z,17.25
2023-01-02T14:36:52.717Z,17.57
2023-01-02T14:42:14.164Z,16.02
2023-01-02T14:47:20.194Z,14.38
2023-01-02T14:52:45.968Z,13.53
2023-01-02T14:57:51.040Z,13.65
2023-01-02T15:03:20.080Z,13.00
2023-01-02T15:08:37.105Z,13.98
2023-01-02T15:14:04.117Z,13.45
2023-01-02T15:19:03.340Z,12.07
2023-01-02T15:24:07.955Z,11.68
2023-01-02T15:29:20.704Z,11.87
2023-01-02T15:34:34.106Z,15.60
2023-01-02T15:39:40.476Z,13.50
2023-01-02T15:45:01.588Z,12.83
2023-01-02T15:50:12.329Z,14.25
2023-01-02T15:55:17.990Z,13.43
2023-01-02T16:00:40.312Z,13.40
2023-01-02T16:05:57.387Z,13.50
2023-01-02T16:11:03.950Z,13.73
2023-01-02T16:16:15.733Z,14.07
2023-01-02T16:21:20.599Z,14.97
2023-01-02T16:26:32.425Z,14.70
2023-01-02T16:31:52.827Z,16.77
2023-01-02T16:37:14.489Z,13.90
2023-01-02T16:42:38.102Z,14.40
2023-01-02T16:47:44.011Z,15.30
2023-01-02T16:52:47.308Z,14.20
2023-01-02T16:57:51.463Z,14.65
2023-01-02T17:02:54.330Z,13.63
2023-01-02T17:07:57.348Z,15.75
2023-01-02T17:13:00.165Z,16.43
2023-01-02T17:18:04.331Z,13.77
2023-01-02T17:23:07.762Z,16.38
2023-01-02T17:28:11.486Z,15.43
2023-01-02T17:33:15.157Z,16.83
2023-01-02T17:38:19.053Z,16.10
2023-01-02T17:43:21.879Z,16.65
2023-01-02T17:48:25.419Z,16.55
2023-01-02T17:53:28.351Z,17.87
2023-01-02T17:58:31.183Z,19.45
2023-01-02T18:03:34.228Z,17.23
2023-01-02T18:08:38.159Z,19.65
2023-01-02T18:13:50.344Z,16.58
2023-01-02T18:18:54.805Z,18.13
2023-01-02T18:24:01.394Z,18.70
2023-01-02T18:29:10.081Z,17.03
2023-01-02T18:39:45.418Z,17.50
2023-01-02T18:44:49.766Z,19.10
2023-01-02T18:49:53.994Z,18.38
2023-01-02T18:55:13.145Z,22.73
2023-01-02T19:00:28.608Z,24.63
2023-01-02T19:05:40.312Z,20.52
2023-01-02T19:10:51.605Z,25.53
2023-01-02T19:16:03.275Z,25.55
2023-01-02T19:21:09.306Z,26.13
2023-01-02T19:26:35.849Z,23.67
2023-01-02T19:31:47.725Z,23.25
2023-01-02T19:36:54.807Z,22.23
2023-01-02T19:42:16.287Z,25.67
2023-01-02T19:47:20.844Z,27.13
2023-01-02T19:52:24.697Z,25.92
2023-01-02T19:57:27.671Z,25.08
2023-01-02T20:02:30.892Z,23.47
2023-01-02T20:07:34.203Z,23.38
2023-01-02T20:12:46.488Z,21.17
2023-01-02T20:17:50.196Z,21.13
2023-01-02T20:22:55.157Z,21.45
2023-01-02T20:27:58.248Z,21.60
2023-01-02T20:33:02.239Z,22.25
2023-01-02T20:38:04.987Z,18.67
2023-01-02T20:43:07.706Z,20.65
2023-01-02T20:48:10.453Z,19.67
2023-01-02T20:53:13.323Z,21.60
2023-01-02T20:58:16.203Z,21.65
2023-01-02T21:03:20.936Z,21.33
2023-01-02T21:08:24.412Z,22.13
2023-01-02T21:13:27.162Z,21.55
2023-01-02T21:18:35.444Z,19.43
2023-01-02T21:23:40.593Z,20.05
2023-01-02T21:28:47.706Z,20.73
2023-01-02T21:33:50.628Z,17.95
2023-01-02T21:38:55.285Z,18.88
2023-01-02T21:43:58.095Z,17.73
2023-01-02T21:49:01.118Z,13.13
2023-01-02T21:54:04.197Z,14.47
2023-01-02T21:59:06.998Z,14.10
2023-01-02T22:04:09.726Z,15.00
2023-01-02T22:09:12.865Z,7.57
2023-01-02T22:14:15.755Z,14.35
2023-01-02T22:19:18.519Z,12.17
2023-01-02T22:24:23.906Z,14.15
2023-01-02T22:29:51.572Z,9.93
2023-01-02T22:34:51.216Z,9.23
2023-01-02T22:39:53.988Z,15.25
2023-01-02T22:44:56.956Z,14.83
2023-01-02T22:50:01.469Z,15.05
2023-01-02T22:55:16.507Z,14.98
2023-01-02T23:00:22.653Z,12.53
2023-01-02T23:05:25.385Z,13.30
2023-01-02T23:10:28.094Z,13.13
2023-01-02T23:15:31.019Z,12.57
2023-01-02T23:20:34.559Z,13.95
2023-01-02T23:25:41.791Z,13.20
2023-01-02T23:30:44.576Z,13.88
2023-01-02T23:35:47.338Z,13.80
2023-01-02T23:40:49.985Z,14.55
2023-01-02T23:45:52.732Z,11.68
2023-01-02T23:51:03.855Z,13.13
2023-01-02T23:56:20.455Z,14.95
